Warren, Canada
Current Conditions -  °F | °C
As of 7:00 PM on Monday 22 Dec 2014 (Local Time) from CYSB Reporting Station
Light Snow Light Snow  
Wind Chill: 15°   Ceiling: 400
Heat Index: 25°   Visibility: 8mi
Dew Point: 23°   Wind: 9mph
Humidity: 93%   Direction: 110°ESE
Pressure: 30.08"   Gusts: NA
Location:  46.43°N, 80.3°W
Report Text: CYSB 230000Z 11008KT 8SM -SN BKN004 OVC016 M04/M05 A3008 RMK SF6SC2 CIG VRB 3-5 SLP205
Loading
Personal Weather Stations






























Interactive Weather Map New forecast layout! Learn more

10-Day Weather Forecast

Advertisements
Track Severe Weather on mobile